Time;durP1;ratioP1;P1;durP2;ratioP2;P2;SDS_P1;SDS_P2;PMS_P1;PMS_P2;Temp;Humidity;BMP_temperature;BMP_pressure;BME280_temperature;BME280_humidity;BME280_pressure;Samples;Min_cycle;Max_cycle;Signal;HPM_P1;HPM_P2
2022/06/14 00:00:54;;;;;;;13.27;3.00;;;14.50;99.90;;;;;;5083203;28;20029;-56
2022/06/14 00:03:20;;;;;;;8.38;2.67;;;14.40;99.90;;;;;;5075564;28;20122;-56
2022/06/14 00:05:47;;;;;;;6.72;3.05;;;14.30;99.90;;;;;;5087038;28;20401;-55
2022/06/14 00:08:14;;;;;;;6.18;3.10;;;14.20;99.90;;;;;;5071638;28;20074;-54
2022/06/14 00:10:41;;;;;;;6.70;3.50;;;14.20;99.90;;;;;;5081338;28;20107;-53
2022/06/14 00:13:07;;;;;;;12.13;2.92;;;14.10;99.90;;;;;;5084982;28;20123;-55
2022/06/14 00:15:33;;;;;;;5.50;3.15;;;14.10;99.90;;;;;;5073457;28;20027;-53
2022/06/14 00:17:59;;;;;;;4.05;2.75;;;14.10;99.90;;;;;;5084944;28;20081;-55
2022/06/14 00:20:25;;;;;;;9.48;3.90;;;14.00;99.90;;;;;;5072666;28;20024;-53
2022/06/14 00:22:50;;;;;;;6.57;3.05;;;13.90;99.90;;;;;;5081870;28;20024;-56
2022/06/14 00:25:29;;;;;;;7.60;3.38;;;13.80;99.90;;;;;;5074184;28;20401;-55
2022/06/14 00:27:55;;;;;;;8.98;3.40;;;13.80;99.90;;;;;;5089328;28;20028;-56
2022/06/14 00:30:22;;;;;;;8.98;2.95;;;13.60;99.90;;;;;;5072388;28;20082;-53
2022/06/14 00:32:47;;;;;;;5.88;3.08;;;13.50;99.90;;;;;;5090055;28;20489;-55
2022/06/14 00:35:13;;;;;;;11.90;3.35;;;13.50;99.90;;;;;;5093216;28;20024;-54
2022/06/14 00:37:39;;;;;;;8.30;4.47;;;13.40;99.90;;;;;;5093478;28;20055;-55
2022/06/14 00:40:06;;;;;;;12.20;3.15;;;13.20;99.90;;;;;;5090909;28;20044;-56
2022/06/14 00:42:32;;;;;;;6.80;3.75;;;13.20;99.90;;;;;;5076605;28;20474;-56
2022/06/14 00:45:02;;;;;;;12.15;5.07;;;13.20;99.90;;;;;;5073680;28;20111;-56
2022/06/14 00:47:28;;;;;;;9.02;3.63;;;13.10;99.90;;;;;;5073650;28;20017;-53
2022/06/14 00:49:58;;;;;;;10.50;3.45;;;13.20;99.90;;;;;;5076288;28;20024;-55
2022/06/14 00:52:34;;;;;;;17.58;3.58;;;13.20;99.90;;;;;;5088007;28;20429;-56
2022/06/14 00:55:27;;;;;;;4.43;3.08;;;13.20;99.90;;;;;;5073511;28;20074;-55
2022/06/14 00:57:55;;;;;;;9.02;3.63;;;13.20;99.90;;;;;;5078013;28;20070;-55
2022/06/14 01:00:27;;;;;;;6.15;3.35;;;13.20;99.90;;;;;;5092317;28;20030;-55
2022/06/14 01:02:55;;;;;;;23.65;4.30;;;13.10;99.90;;;;;;5084685;28;20081;-57
2022/06/14 01:06:05;;;;;;;9.93;3.28;;;13.10;99.90;;;;;;5073259;28;20020;-54
2022/06/14 01:08:22;;;;;;;7.55;3.08;;;13.10;99.90;;;;;;5078346;28;20044;-55
2022/06/14 01:10:49;;;;;;;10.88;3.70;;;13.10;99.90;;;;;;5093427;28;20048;-54
2022/06/14 01:13:17;;;;;;;10.40;3.10;;;13.10;99.90;;;;;;5093114;28;20026;-54
2022/06/14 01:15:44;;;;;;;9.45;3.45;;;13.10;99.90;;;;;;5091715;28;20032;-55
2022/06/14 01:18:14;;;;;;;7.78;3.85;;;13.00;99.90;;;;;;5092558;28;20016;-54
2022/06/14 01:20:41;;;;;;;4.93;3.13;;;13.00;99.90;;;;;;5088385;28;20468;-54
2022/06/14 01:23:09;;;;;;;6.30;3.30;;;13.00;99.90;;;;;;5072769;28;20032;-55
2022/06/14 01:25:40;;;;;;;9.18;3.47;;;12.80;99.90;;;;;;5072966;28;20024;-53
2022/06/14 01:28:09;;;;;;;7.25;3.75;;;12.80;99.90;;;;;;5072780;28;20048;-55
2022/06/14 01:30:42;;;;;;;9.35;3.10;;;12.70;99.90;;;;;;5073880;28;20434;-55
2022/06/14 01:33:13;;;;;;;;;;;12.60;99.90;;;;;;5073320;28;20495;-55
2022/06/14 01:35:43;;;;;;;8.32;3.38;;;12.60;99.90;;;;;;5072757;28;20442;-55
2022/06/14 01:38:13;;;;;;;9.50;3.38;;;12.40;99.90;;;;;;5075772;28;20028;-55
2022/06/14 01:40:58;;;;;;;17.50;4.18;;;12.30;99.90;;;;;;5090037;28;20187;-55
2022/06/14 01:43:56;;;;;;;10.05;3.75;;;12.30;99.90;;;;;;5072858;28;20020;-56
2022/06/14 01:46:25;;;;;;;18.75;3.60;;;12.20;99.90;;;;;;5072147;28;20025;-54
2022/06/14 01:48:53;;;;;;;11.73;4.28;;;12.10;99.90;;;;;;5072707;28;20155;-55
2022/06/14 01:51:50;;;;;;;6.82;3.00;;;12.00;99.90;;;;;;5079060;28;20024;-55
2022/06/14 01:54:43;;;;;;;12.50;3.55;;;11.90;99.90;;;;;;5092234;28;20475;-55
2022/06/14 01:57:16;;;;;;;6.90;4.00;;;11.80;99.90;;;;;;5092185;28;20043;-55
2022/06/14 01:59:51;;;;;;;5.88;3.53;;;11.80;99.90;;;;;;5078146;28;20035;-55
2022/06/14 02:02:24;;;;;;;6.10;2.88;;;11.80;99.90;;;;;;5073487;28;20506;-56
2022/06/14 02:05:06;;;;;;;4.03;3.22;;;11.70;99.90;;;;;;5072067;28;20633;-55
2022/06/14 02:07:47;;;;;;;14.85;4.13;;;11.60;99.90;;;;;;5071898;28;20127;-55
2022/06/14 02:10:19;;;;;;;11.13;3.50;;;11.50;99.90;;;;;;5090895;28;20024;-54
2022/06/14 02:13:05;;;;;;;5.97;3.38;;;11.50;99.90;;;;;;5091995;28;20475;-54
2022/06/14 02:15:38;;;;;;;8.55;3.17;;;11.40;99.90;;;;;;5091945;28;20028;-56
2022/06/14 02:18:11;;;;;;;7.97;3.20;;;11.40;99.90;;;;;;5091816;28;20058;-53
2022/06/14 02:21:08;;;;;;;8.57;3.72;;;11.30;99.90;;;;;;5090558;28;20097;-52
2022/06/14 02:23:40;;;;;;;4.60;3.72;;;11.30;99.90;;;;;;5089651;28;20028;-53
2022/06/14 02:26:15;;;;;;;14.27;3.92;;;11.30;99.90;;;;;;5091956;28;20031;-53
2022/06/14 02:28:51;;;;;;;5.30;3.60;;;11.20;99.90;;;;;;5090281;28;20016;-54
2022/06/14 02:31:32;;;;;;;10.65;3.40;;;11.20;99.90;;;;;;5090129;28;20012;-55
2022/06/14 02:34:05;;;;;;;10.10;3.70;;;11.20;99.90;;;;;;5089996;28;20364;-53
2022/06/14 02:36:52;;;;;;;6.43;3.65;;;11.10;99.90;;;;;;5090187;28;20112;-55
2022/06/14 02:39:23;;;;;;;9.43;4.10;;;11.10;99.90;;;;;;5082116;28;20043;-56
2022/06/14 02:41:58;;;;;;;7.63;3.75;;;11.00;99.90;;;;;;5079627;28;20086;-55
2022/06/14 02:44:35;;;;;;;7.13;3.63;;;11.00;99.90;;;;;;5070141;28;20032;-54
2022/06/14 02:47:27;;;;;;;7.38;4.32;;;10.80;99.90;;;;;;5073544;28;20491;-54
2022/06/14 02:50:04;;;;;;;12.23;3.75;;;10.80;99.90;;;;;;5091500;28;20315;-54
2022/06/14 02:52:38;;;;;;;9.07;3.92;;;10.80;99.90;;;;;;5089985;28;20030;-55
2022/06/14 02:55:07;;;;;;;5.45;4.20;;;10.70;99.90;;;;;;5075478;28;20016;-55
2022/06/14 02:58:05;;;;;;;9.95;4.47;;;10.70;99.90;;;;;;5091122;28;20081;-54
2022/06/14 03:00:46;;;;;;;5.82;3.72;;;10.60;99.90;;;;;;5089932;28;20032;-54
2022/06/14 03:03:45;;;;;;;11.57;4.07;;;10.60;99.90;;;;;;5070911;28;20107;-55
2022/06/14 03:06:38;;;;;;;6.25;4.13;;;10.60;99.90;;;;;;5070663;28;20426;-53
2022/06/14 03:09:10;;;;;;;8.20;4.25;;;10.60;99.90;;;;;;5071840;28;20487;-53
2022/06/14 03:12:00;;;;;;;14.73;4.57;;;10.70;99.90;;;;;;5071927;28;20069;-55
2022/06/14 03:14:37;;;;;;;7.97;4.15;;;10.70;99.90;;;;;;5070828;28;20118;-55
2022/06/14 03:17:34;;;;;;;10.77;3.45;;;10.70;99.90;;;;;;5070595;28;20107;-54
2022/06/14 03:20:07;;;;;;;10.35;3.65;;;10.70;99.90;;;;;;5070600;28;20035;-54
2022/06/14 03:23:04;;;;;;;23.95;3.85;;;10.70;99.90;;;;;;5074235;28;20396;-52
2022/06/14 03:25:42;;;;;;;13.65;4.72;;;10.70;99.90;;;;;;5072639;28;20028;-52
2022/06/14 03:28:18;;;;;;;5.22;3.92;;;10.70;99.90;;;;;;5070321;28;20108;-54
2022/06/14 03:30:51;;;;;;;5.88;4.10;;;10.60;99.90;;;;;;5074639;28;20022;-52
2022/06/14 03:33:36;;;;;;;5.33;3.90;;;10.60;99.90;;;;;;5090149;28;20051;-54
2022/06/14 03:36:02;;;;;;;19.77;4.90;;;10.60;99.90;;;;;;5070374;28;20278;-53
2022/06/14 03:38:39;;;;;;;14.25;4.60;;;10.60;99.90;;;;;;5071853;28;20021;-56
2022/06/14 03:41:07;;;;;;;5.53;3.75;;;10.60;99.90;;;;;;5070885;28;20107;-56
2022/06/14 03:43:34;;;;;;;6.53;4.10;;;10.60;99.90;;;;;;5071558;28;20028;-56
2022/06/14 03:46:09;;;;;;;21.77;5.90;;;10.70;99.90;;;;;;5070427;28;20029;-55
2022/06/14 03:48:38;;;;;;;13.77;4.05;;;10.60;99.90;;;;;;5070433;28;20036;-54
2022/06/14 03:51:21;;;;;;;11.40;4.40;;;10.70;99.90;;;;;;5070364;28;20021;-53
2022/06/14 03:53:56;;;;;;;9.95;4.47;;;10.70;99.90;;;;;;5071082;28;20437;-54
2022/06/14 03:56:47;;;;;;;12.95;3.92;;;10.70;99.90;;;;;;5070214;28;20029;-54
2022/06/14 03:59:41;;;;;;;6.10;3.55;;;10.80;99.90;;;;;;5078267;28;20036;-55
2022/06/14 04:02:53;;;;;;;5.38;4.05;;;10.90;99.90;;;;;;5072837;28;20035;-54
2022/06/14 04:05:26;;;;;;;8.77;4.07;;;10.90;99.90;;;;;;5056415;28;20037;-54
2022/06/14 04:07:54;;;;;;;6.95;4.40;;;11.00;99.90;;;;;;5075033;28;20257;-54
2022/06/14 04:10:51;;;;;;;7.93;4.20;;;11.20;99.90;;;;;;5074191;28;20078;-52
2022/06/14 04:13:33;;;;;;;15.85;4.95;;;11.10;99.90;;;;;;5074090;28;20028;-56
2022/06/14 04:16:12;;;;;;;16.15;4.03;;;11.30;99.90;;;;;;5074109;28;20024;-56
2022/06/14 04:18:44;;;;;;;6.97;4.30;;;11.40;99.90;;;;;;5074293;28;20024;-55
2022/06/14 04:21:37;;;;;;;10.73;4.45;;;11.50;99.90;;;;;;5074069;28;20013;-56
2022/06/14 04:24:17;;;;;;;9.23;4.30;;;11.60;99.90;;;;;;5073968;28;20036;-54
2022/06/14 04:26:54;;;;;;;10.85;4.55;;;11.70;99.90;;;;;;5074116;28;20029;-54
2022/06/14 04:29:29;;;;;;;8.73;5.18;;;11.70;99.90;;;;;;5089428;28;20020;-54
2022/06/14 04:32:02;;;;;;;5.43;3.47;;;12.00;99.90;;;;;;5078727;28;20017;-56
2022/06/14 04:34:47;;;;;;;5.65;4.03;;;12.10;99.90;;;;;;5074160;28;20025;-54
2022/06/14 04:37:29;;;;;;;12.13;4.20;;;12.10;99.90;;;;;;5077398;28;20078;-54
2022/06/14 04:40:09;;;;;;;5.80;4.30;;;12.10;99.90;;;;;;5079860;28;20040;-52
2022/06/14 04:42:39;;;;;;;8.57;4.05;;;12.30;99.90;;;;;;5108955;28;20475;-55
2022/06/14 04:48:16;;;;;;;7.70;4.55;;;12.50;99.90;;;;;;5079483;28;20051;-55
2022/06/14 04:50:55;;;;;;;7.97;4.10;;;12.60;99.90;;;;;;5073665;28;20044;-55
2022/06/14 04:53:27;;;;;;;8.32;4.18;;;12.70;99.90;;;;;;5073592;28;20020;-56
2022/06/14 04:56:18;;;;;;;6.30;3.75;;;12.90;99.90;;;;;;5073964;28;20384;-55
2022/06/14 04:59:08;;;;;;;8.65;5.25;;;13.00;99.90;;;;;;5077506;28;20020;-54
2022/06/14 05:01:48;;;;;;;10.82;3.72;;;13.10;99.90;;;;;;5083096;28;20039;-55
2022/06/14 05:04:25;;;;;;;7.50;4.13;;;13.30;99.90;;;;;;5091490;28;20028;-53
2022/06/14 05:06:56;;;;;;;12.82;4.80;;;13.40;99.90;;;;;;5074709;28;20050;-56
2022/06/14 05:09:34;;;;;;;7.85;4.40;;;13.50;99.90;;;;;;5093404;28;20302;-54
2022/06/14 05:12:38;;;;;;;7.43;4.00;;;13.70;99.90;;;;;;5087998;28;20016;-56
2022/06/14 05:15:22;;;;;;;9.55;4.07;;;13.80;99.90;;;;;;5070386;28;20222;-56
2022/06/14 05:17:59;;;;;;;8.10;3.78;;;14.00;99.90;;;;;;5071574;28;20064;-53
2022/06/14 05:21:01;;;;;;;9.38;3.85;;;14.10;99.90;;;;;;5073221;28;20059;-56
2022/06/14 05:23:35;;;;;;;12.77;4.10;;;14.30;99.90;;;;;;5073027;28;20054;-53
2022/06/14 05:26:08;;;;;;;9.27;3.60;;;14.40;99.90;;;;;;5073048;28;20024;-55
2022/06/14 05:29:15;;;;;;;5.35;4.25;;;14.50;99.90;;;;;;5073918;28;20518;-56
2022/06/14 05:31:58;;;;;;;5.57;3.55;;;14.70;99.90;;;;;;5076653;28;20063;-56
2022/06/14 05:34:45;;;;;;;5.78;3.53;;;14.80;99.90;;;;;;5092207;28;20342;-55
2022/06/14 05:37:21;;;;;;;4.97;3.97;;;14.90;99.90;;;;;;5089387;28;20028;-57
2022/06/14 05:39:56;;;;;;;6.18;3.13;;;15.00;99.90;;;;;;5090760;28;20044;-59
2022/06/14 05:42:29;;;;;;;7.00;3.83;;;15.10;99.90;;;;;;5092037;28;20036;-58
2022/06/14 05:45:00;;;;;;;6.70;3.53;;;15.20;99.90;;;;;;5093065;28;20028;-59
2022/06/14 05:47:33;;;;;;;8.70;3.50;;;15.20;99.90;;;;;;5092579;28;20028;-58
2022/06/14 05:50:04;;;;;;;11.38;4.30;;;15.30;99.90;;;;;;5092451;28;20016;-58
2022/06/14 05:52:41;;;;;;;14.75;3.40;;;15.40;99.90;;;;;;5081935;28;20020;-59
2022/06/14 05:55:18;;;;;;;7.25;3.83;;;15.50;99.90;;;;;;5072153;28;20099;-59
2022/06/14 05:57:54;;;;;;;8.75;3.70;;;15.60;99.90;;;;;;5072379;28;20036;-58
2022/06/14 06:00:28;;;;;;;7.55;3.80;;;15.70;99.90;;;;;;5084690;28;20044;-58
2022/06/14 06:02:59;;;;;;;8.30;3.63;;;15.80;99.90;;;;;;5092973;28;20143;-57
2022/06/14 06:05:33;;;;;;;7.10;3.22;;;15.90;99.90;;;;;;5093247;28;20031;-59
2022/06/14 06:08:07;;;;;;;9.00;3.10;;;16.00;99.90;;;;;;5080672;28;20032;-58
2022/06/14 06:10:37;;;;;;;8.27;3.83;;;16.10;99.90;;;;;;5087923;28;20042;-56
2022/06/14 06:13:29;;;;;;;7.13;3.85;;;16.20;99.90;;;;;;5077270;28;20446;-55
2022/06/14 06:16:12;;;;;;;11.18;4.97;;;16.30;99.90;;;;;;5071785;28;20035;-53
2022/06/14 06:18:49;;;;;;;9.35;3.67;;;16.30;99.90;;;;;;5081059;28;20028;-56
2022/06/14 06:21:23;;;;;;;4.70;3.42;;;16.30;99.90;;;;;;5091645;28;20035;-53
2022/06/14 06:23:54;;;;;;;6.45;3.22;;;16.40;99.90;;;;;;5092559;28;20054;-55
2022/06/14 06:26:23;;;;;;;10.75;3.60;;;16.60;99.90;;;;;;5089302;28;20023;-55
2022/06/14 06:28:56;;;;;;;8.65;3.15;;;16.60;99.90;;;;;;5086971;28;20040;-54
2022/06/14 06:31:27;;;;;;;8.48;4.30;;;16.80;99.90;;;;;;5086554;28;20024;-51
2022/06/14 06:33:55;;;;;;;5.63;3.90;;;16.90;99.90;;;;;;5092729;28;20028;-53
2022/06/14 06:36:40;;;;;;;9.93;3.65;;;17.00;99.90;;;;;;5079729;28;20025;-55
2022/06/14 06:39:24;;;;;;;12.88;3.50;;;17.10;99.90;;;;;;5071989;28;20068;-55
2022/06/14 06:41:56;;;;;;;10.00;4.30;;;17.30;99.90;;;;;;5072676;28;20021;-55
2022/06/14 06:44:52;;;;;;;7.68;2.95;;;17.50;99.90;;;;;;5071874;28;20035;-55
2022/06/14 06:47:34;;;;;;;10.63;3.17;;;17.50;99.90;;;;;;5073077;28;20067;-53
2022/06/14 06:50:14;;;;;;;8.15;3.13;;;17.70;99.90;;;;;;5092415;28;20048;-52
2022/06/14 06:56:11;;;;;;;10.40;3.50;;;17.60;99.90;;;;;;5091823;28;20097;-56
2022/06/14 06:58:51;;;;;;;8.50;3.63;;;17.40;99.90;;;;;;5092243;28;20024;-55
2022/06/14 07:01:31;;;;;;;6.93;3.30;;;17.50;99.90;;;;;;5092230;28;20016;-56
2022/06/14 07:04:20;;;;;;;9.70;3.65;;;17.90;99.90;;;;;;5092144;28;20020;-55
2022/06/14 07:06:56;;;;;;;8.30;3.20;;;17.90;99.90;;;;;;5092274;28;20039;-55
2022/06/14 07:09:43;;;;;;;10.57;3.92;;;18.10;99.90;;;;;;5072353;28;20482;-53
2022/06/14 07:12:16;;;;;;;5.57;3.30;;;18.30;99.90;;;;;;5078184;28;20020;-54
2022/06/14 07:14:57;;;;;;;9.87;3.43;;;18.30;99.90;;;;;;5071629;28;20031;-56
2022/06/14 07:17:38;;;;;;;8.38;3.28;;;18.30;99.90;;;;;;5071639;28;20020;-55
2022/06/14 07:20:25;;;;;;;15.63;6.68;;;18.50;99.90;;;;;;5075059;28;20031;-55
2022/06/14 07:22:55;;;;;;;7.50;4.32;;;18.50;99.90;;;;;;5090113;28;20052;-54
2022/06/14 07:25:21;;;;;;;6.28;3.40;;;18.80;99.90;;;;;;5091392;28;20026;-56
2022/06/14 07:28:15;;;;;;;5.70;3.50;;;19.10;99.90;;;;;;5093671;28;20036;-52
2022/06/14 07:30:55;;;;;;;10.00;3.50;;;19.10;99.90;;;;;;5093228;28;20076;-55
2022/06/14 07:33:24;;;;;;;8.27;3.70;;;18.90;99.90;;;;;;5092305;28;20023;-53
2022/06/14 07:35:57;;;;;;;10.00;3.70;;;18.70;99.80;;;;;;5096403;28;20021;-55
2022/06/14 07:38:35;;;;;;;11.87;3.93;;;18.80;99.00;;;;;;5096943;28;20036;-55
2022/06/14 07:41:46;;;;;;;11.02;4.00;;;18.90;99.90;;;;;;5094739;28;20024;-55
2022/06/14 07:44:30;;;;;;;13.88;4.07;;;18.80;99.30;;;;;;5090171;28;20040;-50
2022/06/14 07:47:36;;;;;;;6.20;3.55;;;18.60;97.70;;;;;;5095082;28;20012;-55
2022/06/14 07:50:14;;;;;;;10.68;3.78;;;18.60;98.50;;;;;;5072725;28;20258;-55
2022/06/14 07:52:52;;;;;;;5.78;3.55;;;18.70;97.00;;;;;;5068131;28;20020;-52
2022/06/14 07:55:30;;;;;;;4.85;3.35;;;18.70;96.60;;;;;;5082893;28;20044;-52
2022/06/14 07:58:14;;;;;;;7.93;3.50;;;19.00;94.90;;;;;;5093742;28;20020;-55
2022/06/14 08:03:47;;;;;;;5.53;3.05;;;19.30;88.10;;;;;;5077637;28;20318;-51
2022/06/14 08:06:19;;;;;;;;;;;19.80;90.90;;;;;;5075147;28;20449;-55
2022/06/14 08:08:49;;;;;;;7.50;3.58;;;20.10;90.50;;;;;;5075327;28;19998;-56
2022/06/14 08:11:46;;;;;;;7.35;3.78;;;20.00;92.30;;;;;;5072962;28;20024;-52
2022/06/14 08:14:27;;;;;;;6.32;3.67;;;20.00;91.30;;;;;;5071725;28;20111;-53
2022/06/14 08:16:54;;;;;;;6.75;3.97;;;20.10;91.10;;;;;;5073563;28;20639;-55
2022/06/14 08:19:26;;;;;;;5.40;2.90;;;20.20;90.20;;;;;;5071242;28;20409;-55
2022/06/14 08:21:58;;;;;;;6.53;3.85;;;20.30;92.30;;;;;;5071190;28;20024;-52
2022/06/14 08:24:33;;;;;;;6.00;3.53;;;20.20;86.30;;;;;;5071182;28;20021;-55
2022/06/14 08:27:06;;;;;;;9.57;2.97;;;20.40;89.20;;;;;;5070681;28;20033;-53
2022/06/14 08:29:50;;;;;;;9.75;3.47;;;20.70;88.20;;;;;;5074867;28;20023;-52
2022/06/14 08:32:37;;;;;;;9.35;3.45;;;21.00;85.70;;;;;;5091402;28;20085;-55
2022/06/14 08:35:16;;;;;;;11.43;4.18;;;20.90;89.20;;;;;;5070585;28;20048;-54
2022/06/14 08:37:52;;;;;;;12.23;4.80;;;21.00;85.80;;;;;;5070743;28;20020;-65
2022/06/14 08:40:20;;;;;;;11.35;3.88;;;21.30;81.80;;;;;;5070714;28;20491;-53
2022/06/14 08:42:54;;;;;;;8.52;3.10;;;21.40;82.60;;;;;;5069660;28;20491;-51
2022/06/14 08:45:28;;;;;;;10.15;3.80;;;21.80;86.00;;;;;;5071019;28;20721;-63
2022/06/14 08:47:56;;;;;;;11.60;3.58;;;22.10;82.90;;;;;;5069632;28;20051;-58
2022/06/14 08:50:51;;;;;;;9.30;3.30;;;22.40;83.60;;;;;;5070713;28;20412;-55
2022/06/14 08:53:20;;;;;;;5.63;2.95;;;22.80;80.60;;;;;;5073063;28;20020;-54
2022/06/14 08:56:09;;;;;;;6.35;2.50;;;23.20;80.90;;;;;;5074567;28;20036;-54
2022/06/14 08:58:37;;;;;;;10.43;3.80;;;23.10;76.90;;;;;;5085712;28;20498;-53
2022/06/14 09:01:44;;;;;;;14.10;3.63;;;22.90;78.50;;;;;;5093691;28;20031;-54
2022/06/14 09:07:38;;;;;;;16.65;6.35;;;22.50;82.00;;;;;;5073558;28;20150;-52
2022/06/14 09:10:52;;;;;;;7.22;3.55;;;22.30;84.20;;;;;;5073057;28;20025;-53
2022/06/14 09:13:39;;;;;;;11.13;4.18;;;22.50;84.50;;;;;;5071848;28;20033;-54
2022/06/14 09:16:31;;;;;;;13.30;3.47;;;22.80;83.80;;;;;;5073233;28;20400;-54
2022/06/14 09:19:00;;;;;;;8.75;3.45;;;22.60;84.40;;;;;;5071984;28;20071;-51
2022/06/14 09:21:43;;;;;;;10.60;3.55;;;22.90;84.30;;;;;;5073361;28;20019;-54
2022/06/14 09:24:31;;;;;;;10.43;3.70;;;23.30;83.70;;;;;;5073348;28;20029;-55
2022/06/14 09:26:59;;;;;;;13.95;3.80;;;23.30;79.90;;;;;;5073988;28;20056;-52
2022/06/14 09:29:51;;;;;;;27.63;4.35;;;22.90;76.50;;;;;;5074094;28;20033;-54
2022/06/14 09:33:09;;;;;;;9.88;3.47;;;23.20;79.50;;;;;;5078477;28;20046;-53
2022/06/14 09:35:50;;;;;;;6.00;3.22;;;23.50;79.20;;;;;;5094014;28;20070;-56
2022/06/14 09:38:37;;;;;;;5.25;2.80;;;23.90;82.30;;;;;;5093792;28;20028;-51
2022/06/14 09:41:24;;;;;;;6.00;2.88;;;24.20;70.10;;;;;;5093223;28;20044;-56
2022/06/14 09:44:31;;;;;;;5.93;2.92;;;23.90;68.10;;;;;;5094084;28;20016;-53
2022/06/14 09:47:21;;;;;;;19.30;4.25;;;24.30;72.20;;;;;;5088775;28;20036;-52
2022/06/14 09:50:05;;;;;;;10.18;4.60;;;23.60;69.30;;;;;;5093976;28;20076;-52
2022/06/14 09:53:01;;;;;;;12.13;3.53;;;23.20;74.10;;;;;;5079621;28;20017;-52
2022/06/14 09:55:38;;;;;;;13.85;3.92;;;22.60;75.00;;;;;;5073515;28;20028;-51
2022/06/14 09:58:29;;;;;;;10.77;3.70;;;22.60;78.10;;;;;;5072610;28;20029;-53
2022/06/14 10:01:06;;;;;;;7.20;3.42;;;22.80;76.20;;;;;;5073026;28;20020;-51
2022/06/14 10:03:50;;;;;;;7.70;3.22;;;23.10;76.70;;;;;;5073155;28;20103;-51
2022/06/14 10:06:52;;;;;;;6.50;2.78;;;23.30;73.30;;;;;;5092395;28;20467;-54
2022/06/14 10:09:52;;;;;;;7.32;3.45;;;23.80;73.70;;;;;;5091754;28;20069;-54
2022/06/14 10:12:33;;;;;;;6.18;3.00;;;24.40;69.30;;;;;;5092095;28;20024;-54
2022/06/14 10:15:26;;;;;;;6.45;2.85;;;24.30;64.40;;;;;;5092200;28;20032;-54
2022/06/14 10:18:10;;;;;;;6.28;3.30;;;24.40;66.30;;;;;;5092413;28;20028;-54
2022/06/14 10:20:38;;;;;;;8.32;3.58;;;24.70;65.00;;;;;;5075835;28;20032;-55
2022/06/14 10:23:31;;;;;;;6.80;3.00;;;24.60;64.00;;;;;;5071461;28;20033;-56
2022/06/14 10:29:13;;;;;;;7.32;3.08;;;25.50;61.90;;;;;;5072773;28;20086;-55
2022/06/14 10:32:14;;;;;;;7.03;3.00;;;26.00;63.60;;;;;;5073006;28;20021;-52
2022/06/14 10:34:49;;;;;;;6.57;2.88;;;26.00;61.10;;;;;;5076084;28;20025;-54
2022/06/14 10:37:44;;;;;;;11.57;2.70;;;25.90;61.80;;;;;;5081046;28;20471;-53
2022/06/14 10:44:34;;;;;;;7.65;3.30;;;24.60;64.00;;;;;;5048113;28;20044;-55
2022/06/14 10:47:10;;;;;;;8.45;3.60;;;24.90;65.30;;;;;;5060986;28;20094;-51
2022/06/14 10:49:54;;;;;;;8.65;3.22;;;24.90;63.40;;;;;;5075600;28;20479;-56
2022/06/14 10:52:55;;;;;;;5.97;2.92;;;24.20;62.60;;;;;;5067894;28;20149;-54
2022/06/14 10:55:23;;;;;;;7.28;3.08;;;24.10;65.80;;;;;;5078966;28;20020;-55
2022/06/14 10:58:18;;;;;;;7.90;2.70;;;24.40;64.50;;;;;;5078750;28;20495;-54
2022/06/14 11:01:13;;;;;;;9.07;3.08;;;24.90;63.90;;;;;;5069974;28;20040;-56
2022/06/14 11:03:57;;;;;;;6.18;3.40;;;25.60;63.50;;;;;;5077834;28;20040;-56
2022/06/14 11:06:52;;;;;;;9.63;3.30;;;25.40;64.30;;;;;;5076521;28;20463;-55
2022/06/14 11:09:44;;;;;;;8.20;3.00;;;26.40;63.10;;;;;;5043369;28;20068;-56
2022/06/14 11:12:34;;;;;;;5.30;2.75;;;26.00;60.00;;;;;;5045863;28;20064;-56
2022/06/14 11:15:14;;;;;;;6.95;2.95;;;26.10;62.70;;;;;;5068536;28;20020;-55
2022/06/14 11:17:58;;;;;;;11.50;3.08;;;26.10;55.90;;;;;;5060241;28;20025;-54
2022/06/14 11:20:30;;;;;;;7.13;3.33;;;25.80;58.60;;;;;;5080916;28;20036;-54
2022/06/14 11:22:58;;;;;;;6.80;2.90;;;26.00;55.00;;;;;;5074600;28;20059;-54
2022/06/14 11:25:39;;;;;;;7.43;3.92;;;25.90;53.60;;;;;;5071273;28;20043;-56
2022/06/14 11:28:09;;;;;;;7.55;3.00;;;25.60;55.80;;;;;;5069894;28;20048;-55
2022/06/14 11:30:50;;;;;;;12.80;3.42;;;25.80;54.20;;;;;;5070944;28;20024;-53
2022/06/14 11:33:18;;;;;;;8.13;3.08;;;26.10;52.90;;;;;;5068819;28;20089;-54
2022/06/14 11:36:21;;;;;;;10.13;3.10;;;26.20;57.10;;;;;;5070590;28;20021;-55
2022/06/14 11:39:01;;;;;;;6.22;2.90;;;26.00;56.00;;;;;;5070388;28;20055;-54
2022/06/14 11:41:34;;;;;;;9.27;3.65;;;25.70;56.00;;;;;;5068916;28;20040;-56
2022/06/14 11:44:05;;;;;;;9.63;3.78;;;25.20;59.20;;;;;;5068133;28;20051;-54
2022/06/14 11:46:49;;;;;;;11.48;3.78;;;24.80;60.10;;;;;;5068519;28;20020;-53
2022/06/14 11:49:56;;;;;;;8.52;2.88;;;24.30;59.70;;;;;;5069234;28;20383;-53
2022/06/14 11:52:31;;;;;;;16.35;3.35;;;24.70;63.30;;;;;;5066574;28;20083;-53
2022/06/14 11:55:08;;;;;;;9.48;3.63;;;24.40;57.60;;;;;;5069746;28;20027;-52
2022/06/14 11:58:01;;;;;;;7.45;3.20;;;24.70;64.10;;;;;;5070331;28;20024;-51
2022/06/14 12:00:27;;;;;;;7.30;3.42;;;25.40;58.70;;;;;;5070219;28;20063;-56
2022/06/14 12:03:06;;;;;;;5.50;3.20;;;26.00;59.40;;;;;;5070677;28;20531;-55
2022/06/14 12:05:38;;;;;;;8.02;2.92;;;26.80;56.30;;;;;;5070419;28;20082;-56
2022/06/14 12:08:32;;;;;;;5.25;2.58;;;26.60;52.90;;;;;;5069845;28;20017;-56
2022/06/14 12:11:15;;;;;;;9.95;3.95;;;26.80;56.00;;;;;;5068904;28;20369;-55
2022/06/14 12:14:00;;;;;;;3.75;2.25;;;26.00;53.40;;;;;;5070187;28;20029;-54
2022/06/14 12:16:49;;;;;;;4.97;2.78;;;26.30;52.70;;;;;;5069934;28;20078;-56
2022/06/14 12:19:33;;;;;;;4.18;2.20;;;27.00;53.10;;;;;;5069112;28;20419;-55
2022/06/14 12:22:34;;;;;;;10.38;2.67;;;28.40;50.60;;;;;;5069477;28;20187;-56
2022/06/14 12:27:59;;;;;;;5.85;2.38;;;29.60;52.10;;;;;;5071477;28;20450;-56
2022/06/14 12:30:28;;;;;;;9.95;2.60;;;30.10;53.20;;;;;;5073887;28;20012;-56
2022/06/14 12:33:08;;;;;;;8.45;2.50;;;31.10;50.00;;;;;;5073894;28;20017;-57
2022/06/14 12:35:41;;;;;;;6.07;2.75;;;30.80;48.20;;;;;;5073334;28;20251;-57
2022/06/14 12:38:19;;;;;;;;;;;30.70;46.90;;;;;;5073996;28;20035;-57
2022/06/14 12:40:48;;;;;;;8.35;2.67;;;30.80;46.50;;;;;;5073841;28;19916;-55
2022/06/14 12:43:40;;;;;;;6.25;2.28;;;31.30;45.30;;;;;;5073502;28;20446;-55
2022/06/14 12:46:12;;;;;;;10.50;2.75;;;31.10;46.70;;;;;;5073361;28;20016;-54
2022/06/14 12:48:56;;;;;;;8.07;2.40;;;31.60;46.80;;;;;;5073580;28;20032;-55
2022/06/14 12:51:31;;;;;;;5.57;2.88;;;31.30;44.50;;;;;;5073360;28;20025;-55
2022/06/14 12:54:15;;;;;;;6.78;2.90;;;31.30;43.60;;;;;;5073582;28;20176;-55
2022/06/14 12:56:58;;;;;;;8.05;2.65;;;30.40;44.30;;;;;;5073697;28;20024;-55
2022/06/14 12:59:58;;;;;;;6.95;3.03;;;28.70;43.40;;;;;;5072006;28;20028;-56
2022/06/14 13:02:42;;;;;;;6.55;2.92;;;27.80;47.30;;;;;;5073287;28;20100;-58
2022/06/14 13:05:10;;;;;;;3.25;1.98;;;28.60;51.90;;;;;;5073257;28;20037;-58
2022/06/14 13:07:54;;;;;;;4.72;2.17;;;29.90;48.00;;;;;;5073274;28;20024;-58
2022/06/14 13:10:51;;;;;;;4.68;2.40;;;31.40;47.00;;;;;;5072707;28;20029;-56
2022/06/14 13:13:49;;;;;;;7.15;2.65;;;31.50;46.00;;;;;;5071699;28;20111;-56
2022/06/14 13:16:49;;;;;;;5.97;2.72;;;32.00;44.50;;;;;;5072974;28;20572;-56
2022/06/14 13:19:33;;;;;;;7.78;2.38;;;31.90;45.20;;;;;;5072839;28;20128;-56
2022/06/14 13:22:18;;;;;;;5.32;2.00;;;31.80;43.10;;;;;;5072851;28;20020;-55
2022/06/14 13:24:49;;;;;;;6.32;2.30;;;31.70;42.80;;;;;;5073176;28;20028;-56
2022/06/14 13:27:44;;;;;;;16.50;2.60;;;30.70;43.50;;;;;;5072833;28;20032;-55
2022/06/14 13:30:26;;;;;;;4.95;2.17;;;30.90;45.70;;;;;;5070131;28;20044;-56
2022/06/14 13:32:52;;;;;;;9.40;2.25;;;31.60;43.10;;;;;;5072569;28;20135;-56
2022/06/14 13:35:52;;;;;;;7.93;2.00;;;31.70;41.40;;;;;;5072347;28;20091;-56
2022/06/14 13:38:36;;;;;;;8.40;2.60;;;32.00;43.50;;;;;;5071933;28;20028;-56
2022/06/14 13:41:25;;;;;;;6.18;2.35;;;32.00;42.70;;;;;;5072292;28;20036;-55
2022/06/14 13:44:15;;;;;;;9.88;2.50;;;31.60;41.60;;;;;;5072686;28;20502;-56
2022/06/14 13:47:01;;;;;;;8.32;2.47;;;32.10;43.30;;;;;;5072701;28;20037;-56
2022/06/14 13:49:34;;;;;;;5.25;2.30;;;33.00;43.10;;;;;;5072461;28;20024;-56
2022/06/14 13:52:18;;;;;;;9.40;2.42;;;32.80;42.20;;;;;;5072467;28;20565;-56
2022/06/14 13:55:09;;;;;;;5.28;2.65;;;33.20;41.50;;;;;;5072518;28;20032;-56
2022/06/14 13:57:49;;;;;;;6.10;2.05;;;33.30;40.30;;;;;;5072515;28;20492;-56
2022/06/14 14:00:24;;;;;;;7.70;2.50;;;32.70;42.10;;;;;;5104714;28;20386;-56
2022/06/14 14:03:01;;;;;;;9.43;2.20;;;32.40;43.40;;;;;;5072469;28;20546;-56
2022/06/14 14:05:42;;;;;;;9.45;2.33;;;32.40;43.70;;;;;;5072086;28;20025;-57
2022/06/14 14:08:32;;;;;;;10.90;2.28;;;32.30;43.80;;;;;;5071773;28;20244;-56
2022/06/14 14:11:03;;;;;;;4.70;2.35;;;33.00;44.00;;;;;;5072147;28;20016;-56
2022/06/14 14:13:28;;;;;;;10.82;2.53;;;33.30;43.20;;;;;;5072077;28;20017;-56